sensor_id;sensor_type;location;lat;lon;timestamp;pressure;altitude;pressure_sealevel;temperature;humidity
52927;BME280;40783;49.710;8.842;2023-09-19T00:01:22;98545.97;;;17.11;100.00
52927;BME280;40783;49.710;8.842;2023-09-19T00:03:47;98551.16;;;17.12;100.00
52927;BME280;40783;49.710;8.842;2023-09-19T00:06:12;98550.94;;;17.14;100.00
52927;BME280;40783;49.710;8.842;2023-09-19T00:08:40;98555.72;;;17.18;100.00
52927;BME280;40783;49.710;8.842;2023-09-19T00:11:09;98553.38;;;17.22;100.00
52927;BME280;40783;49.710;8.842;2023-09-19T00:13:35;98555.91;;;17.17;100.00
52927;BME280;40783;49.710;8.842;2023-09-19T00:16:01;98560.09;;;17.13;100.00
52927;BME280;40783;49.710;8.842;2023-09-19T00:18:26;98562.78;;;17.13;100.00
52927;BME280;40783;49.710;8.842;2023-09-19T00:21:00;98566.75;;;17.10;100.00
52927;BME280;40783;49.710;8.842;2023-09-19T00:23:26;98568.38;;;17.18;100.00
52927;BME280;40783;49.710;8.842;2023-09-19T00:25:51;98560.50;;;17.16;100.00
52927;BME280;40783;49.710;8.842;2023-09-19T00:28:22;98566.09;;;17.22;100.00
52927;BME280;40783;49.710;8.842;2023-09-19T00:30:47;98567.94;;;17.21;100.00
52927;BME280;40783;49.710;8.842;2023-09-19T00:33:15;98560.09;;;17.13;100.00
52927;BME280;40783;49.710;8.842;2023-09-19T00:35:51;98564.25;;;17.15;100.00
52927;BME280;40783;49.710;8.842;2023-09-19T00:38:16;98565.06;;;17.16;100.00
52927;BME280;40783;49.710;8.842;2023-09-19T00:40:48;98573.81;;;17.11;100.00
52927;BME280;40783;49.710;8.842;2023-09-19T00:43:16;98570.88;;;17.13;100.00
52927;BME280;40783;49.710;8.842;2023-09-19T00:45:45;98563.81;;;17.12;100.00
52927;BME280;40783;49.710;8.842;2023-09-19T00:48:14;98570.50;;;17.02;100.00
52927;BME280;40783;49.710;8.842;2023-09-19T00:50:42;98564.25;;;17.09;100.00
52927;BME280;40783;49.710;8.842;2023-09-19T00:53:09;98574.00;;;17.10;100.00
52927;BME280;40783;49.710;8.842;2023-09-19T00:55:35;98569.84;;;17.14;100.00
52927;BME280;40783;49.710;8.842;2023-09-19T00:58:04;98576.09;;;17.14;100.00
52927;BME280;40783;49.710;8.842;2023-09-19T01:00:31;98571.72;;;17.13;100.00
52927;BME280;40783;49.710;8.842;2023-09-19T01:02:59;98579.84;;;17.13;100.00
52927;BME280;40783;49.710;8.842;2023-09-19T01:05:26;98579.59;;;17.15;100.00
52927;BME280;40783;49.710;8.842;2023-09-19T01:07:51;98577.53;;;17.17;100.00
52927;BME280;40783;49.710;8.842;2023-09-19T01:10:18;98573.78;;;17.18;100.00
52927;BME280;40783;49.710;8.842;2023-09-19T01:21:08;98595.00;;;17.08;100.00
52927;BME280;40783;49.710;8.842;2023-09-19T01:24:03;98596.28;;;17.05;100.00
52927;BME280;40783;49.710;8.842;2023-09-19T01:31:54;98601.66;;;17.12;100.00
52927;BME280;40783;49.710;8.842;2023-09-19T01:34:26;98609.13;;;17.16;100.00
52927;BME280;40783;49.710;8.842;2023-09-19T01:36:51;98613.31;;;17.12;100.00
52927;BME280;40783;49.710;8.842;2023-09-19T01:39:16;98610.59;;;17.12;100.00
52927;BME280;40783;49.710;8.842;2023-09-19T01:42:03;98614.31;;;17.18;100.00
52927;BME280;40783;49.710;8.842;2023-09-19T01:44:44;98613.44;;;17.24;100.00
52927;BME280;40783;49.710;8.842;2023-09-19T01:47:33;98623.22;;;17.25;100.00
52927;BME280;40783;49.710;8.842;2023-09-19T01:50:02;98613.63;;;17.29;100.00
52927;BME280;40783;49.710;8.842;2023-09-19T01:52:31;98615.50;;;17.29;100.00
52927;BME280;40783;49.710;8.842;2023-09-19T01:55:03;98611.97;;;17.28;100.00
52927;BME280;40783;49.710;8.842;2023-09-19T01:57:42;98617.38;;;17.28;100.00
52927;BME280;40783;49.710;8.842;2023-09-19T02:00:14;98614.06;;;17.26;100.00
52927;BME280;40783;49.710;8.842;2023-09-19T02:02:43;98623.59;;;17.29;100.00
52927;BME280;40783;49.710;8.842;2023-09-19T02:05:10;98629.84;;;17.29;100.00
52927;BME280;40783;49.710;8.842;2023-09-19T02:07:35;98632.34;;;17.24;100.00
52927;BME280;40783;49.710;8.842;2023-09-19T02:10:03;98630.69;;;17.23;100.00
52927;BME280;40783;49.710;8.842;2023-09-19T02:12:31;98634.44;;;17.22;100.00
52927;BME280;40783;49.710;8.842;2023-09-19T02:14:57;98637.38;;;17.20;100.00
52927;BME280;40783;49.710;8.842;2023-09-19T02:17:24;98631.56;;;17.17;100.00
52927;BME280;40783;49.710;8.842;2023-09-19T02:19:53;98638.63;;;17.18;100.00
52927;BME280;40783;49.710;8.842;2023-09-19T02:22:20;98649.47;;;17.11;100.00
52927;BME280;40783;49.710;8.842;2023-09-19T02:24:49;98657.34;;;17.13;100.00
52927;BME280;40783;49.710;8.842;2023-09-19T02:27:15;98655.25;;;17.15;100.00
52927;BME280;40783;49.710;8.842;2023-09-19T02:29:41;98662.75;;;17.13;100.00
52927;BME280;40783;49.710;8.842;2023-09-19T02:32:06;98667.72;;;17.16;100.00
52927;BME280;40783;49.710;8.842;2023-09-19T02:34:34;98669.19;;;17.12;100.00
52927;BME280;40783;49.710;8.842;2023-09-19T02:37:01;98669.38;;;17.17;100.00
52927;BME280;40783;49.710;8.842;2023-09-19T02:39:26;98663.13;;;17.23;100.00
52927;BME280;40783;49.710;8.842;2023-09-19T02:41:53;98673.78;;;17.11;100.00
52927;BME280;40783;49.710;8.842;2023-09-19T02:44:18;98663.34;;;17.15;100.00
52927;BME280;40783;49.710;8.842;2023-09-19T02:46:45;98671.06;;;17.11;100.00
52927;BME280;40783;49.710;8.842;2023-09-19T02:49:13;98673.56;;;16.99;100.00
52927;BME280;40783;49.710;8.842;2023-09-19T02:51:42;98676.50;;;16.91;100.00
52927;BME280;40783;49.710;8.842;2023-09-19T02:54:08;98674.00;;;16.96;100.00
52927;BME280;40783;49.710;8.842;2023-09-19T02:56:33;98674.00;;;16.96;100.00
52927;BME280;40783;49.710;8.842;2023-09-19T02:59:01;98674.41;;;16.93;100.00
52927;BME280;40783;49.710;8.842;2023-09-19T03:01:26;98683.13;;;16.95;100.00
52927;BME280;40783;49.710;8.842;2023-09-19T03:03:53;98678.59;;;16.89;100.00
52927;BME280;40783;49.710;8.842;2023-09-19T03:06:18;98684.81;;;16.89;100.00
52927;BME280;40783;49.710;8.842;2023-09-19T03:08:45;98683.97;;;16.89;100.00
52927;BME280;40783;49.710;8.842;2023-09-19T03:11:11;98692.50;;;16.86;100.00
52927;BME280;40783;49.710;8.842;2023-09-19T03:13:39;98680.66;;;16.80;100.00
52927;BME280;40783;49.710;8.842;2023-09-19T03:16:05;98695.84;;;16.74;100.00
52927;BME280;40783;49.710;8.842;2023-09-19T03:18:35;98697.09;;;16.79;100.00
52927;BME280;40783;49.710;8.842;2023-09-19T03:21:03;98694.38;;;16.72;100.00
52927;BME280;40783;49.710;8.842;2023-09-19T03:23:29;98691.88;;;16.84;100.00
52927;BME280;40783;49.710;8.842;2023-09-19T03:25:54;98705.38;;;16.84;100.00
52927;BME280;40783;49.710;8.842;2023-09-19T03:28:23;98699.38;;;16.82;100.00
52927;BME280;40783;49.710;8.842;2023-09-19T03:30:58;98708.09;;;16.84;100.00
52927;BME280;40783;49.710;8.842;2023-09-19T03:33:24;98706.00;;;16.86;100.00
52927;BME280;40783;49.710;8.842;2023-09-19T03:35:52;98691.47;;;16.87;100.00
52927;BME280;40783;49.710;8.842;2023-09-19T03:38:20;98697.69;;;16.81;100.00
52927;BME280;40783;49.710;8.842;2023-09-19T03:40:46;98694.19;;;16.73;100.00
52927;BME280;40783;49.710;8.842;2023-09-19T03:43:14;98702.50;;;16.65;100.00
52927;BME280;40783;49.710;8.842;2023-09-19T03:45:39;98703.53;;;16.64;100.00
52927;BME280;40783;49.710;8.842;2023-09-19T03:48:08;98701.44;;;16.66;100.00
52927;BME280;40783;49.710;8.842;2023-09-19T03:50:35;98707.69;;;16.67;100.00
52927;BME280;40783;49.710;8.842;2023-09-19T03:53:01;98702.28;;;16.67;100.00
52927;BME280;40783;49.710;8.842;2023-09-19T03:55:29;98709.75;;;16.71;100.00
52927;BME280;40783;49.710;8.842;2023-09-19T03:57:57;98707.69;;;16.73;100.00
52927;BME280;40783;49.710;8.842;2023-09-19T04:00:22;98709.34;;;16.74;100.00
52927;BME280;40783;49.710;8.842;2023-09-19T04:02:51;98715.56;;;16.75;100.00
52927;BME280;40783;49.710;8.842;2023-09-19T04:05:16;98719.72;;;16.77;100.00
52927;BME280;40783;49.710;8.842;2023-09-19T04:07:42;98714.13;;;16.72;100.00
52927;BME280;40783;49.710;8.842;2023-09-19T04:10:07;98718.50;;;16.67;100.00
52927;BME280;40783;49.710;8.842;2023-09-19T04:12:34;98719.31;;;16.60;100.00
52927;BME280;40783;49.710;8.842;2023-09-19T04:15:01;98718.91;;;16.64;100.00
52927;BME280;40783;49.710;8.842;2023-09-19T04:17:27;98721.81;;;16.62;100.00
52927;BME280;40783;49.710;8.842;2023-09-19T04:35:10;98725.75;;;16.66;100.00
52927;BME280;40783;49.710;8.842;2023-09-19T04:37:39;98728.44;;;16.66;100.00
52927;BME280;40783;49.710;8.842;2023-09-19T04:40:05;98731.97;;;16.60;100.00
52927;BME280;40783;49.710;8.842;2023-09-19T04:42:31;98733.00;;;16.59;100.00
52927;BME280;40783;49.710;8.842;2023-09-19T04:45:00;98731.75;;;16.55;100.00
52927;BME280;40783;49.710;8.842;2023-09-19T04:47:25;98738.63;;;16.51;100.00
52927;BME280;40783;49.710;8.842;2023-09-19T04:49:52;98743.81;;;16.45;100.00
52927;BME280;40783;49.710;8.842;2023-09-19T04:52:17;98752.53;;;16.41;100.00
52927;BME280;40783;49.710;8.842;2023-09-19T04:54:45;98754.41;;;16.40;100.00
52927;BME280;40783;49.710;8.842;2023-09-19T04:57:11;98753.78;;;16.38;100.00
52927;BME280;40783;49.710;8.842;2023-09-19T04:59:38;98752.31;;;16.29;100.00
52927;BME280;40783;49.710;8.842;2023-09-19T05:02:06;98764.97;;;16.22;100.00
52927;BME280;40783;49.710;8.842;2023-09-19T05:04:33;98765.38;;;16.12;100.00
52927;BME280;40783;49.710;8.842;2023-09-19T05:06:58;98762.25;;;16.15;100.00
52927;BME280;40783;49.710;8.842;2023-09-19T05:09:25;98764.50;;;16.18;100.00
52927;BME280;40783;49.710;8.842;2023-09-19T05:11:52;98765.38;;;16.19;100.00
52927;BME280;40783;49.710;8.842;2023-09-19T05:14:18;98770.34;;;16.22;100.00
52927;BME280;40783;49.710;8.842;2023-09-19T05:16:44;98771.78;;;16.24;100.00
52927;BME280;40783;49.710;8.842;2023-09-19T05:19:09;98786.13;;;16.25;100.00
52927;BME280;40783;49.710;8.842;2023-09-19T05:21:36;98781.16;;;16.22;100.00
52927;BME280;40783;49.710;8.842;2023-09-19T05:24:03;98788.38;;;16.14;100.00
52927;BME280;40783;49.710;8.842;2023-09-19T05:26:31;98790.28;;;16.21;100.00
52927;BME280;40783;49.710;8.842;2023-09-19T05:28:56;98800.63;;;16.10;100.00
52927;BME280;40783;49.710;8.842;2023-09-19T05:31:24;98795.66;;;16.14;100.00
52927;BME280;40783;49.710;8.842;2023-09-19T05:33:50;98804.38;;;16.16;100.00
52927;BME280;40783;49.710;8.842;2023-09-19T05:36:16;98805.19;;;16.16;100.00
52927;BME280;40783;49.710;8.842;2023-09-19T05:38:41;98803.53;;;16.15;100.00
52927;BME280;40783;49.710;8.842;2023-09-19T05:41:09;98805.41;;;16.15;100.00
52927;BME280;40783;49.710;8.842;2023-09-19T05:43:38;98814.97;;;16.17;100.00
52927;BME280;40783;49.710;8.842;2023-09-19T05:46:03;98806.88;;;16.17;100.00
52927;BME280;40783;49.710;8.842;2023-09-19T05:48:29;98803.94;;;16.19;100.00
52927;BME280;40783;49.710;8.842;2023-09-19T05:50:56;98802.72;;;16.22;100.00
52927;BME280;40783;49.710;8.842;2023-09-19T05:53:24;98792.97;;;16.21;100.00
52927;BME280;40783;49.710;8.842;2023-09-19T05:55:49;98800.63;;;16.17;100.00
52927;BME280;40783;49.710;8.842;2023-09-19T05:58:14;98802.69;;;16.08;100.00
52927;BME280;40783;49.710;8.842;2023-09-19T06:00:42;98805.38;;;16.08;100.00
52927;BME280;40783;49.710;8.842;2023-09-19T06:03:12;98798.13;;;16.09;100.00
52927;BME280;40783;49.710;8.842;2023-09-19T06:05:39;98805.19;;;16.16;100.00
52927;BME280;40783;49.710;8.842;2023-09-19T06:08:08;98803.94;;;16.12;100.00
52927;BME280;40783;49.710;8.842;2023-09-19T06:10:37;98816.78;;;16.10;100.00
52927;BME280;40783;49.710;8.842;2023-09-19T06:13:02;98811.19;;;16.05;100.00
52927;BME280;40783;49.710;8.842;2023-09-19T06:15:29;98822.19;;;16.10;100.00
52927;BME280;40783;49.710;8.842;2023-09-19T06:17:57;98824.66;;;16.05;100.00
52927;BME280;40783;49.710;8.842;2023-09-19T06:20:24;98831.72;;;16.06;100.00
52927;BME280;40783;49.710;8.842;2023-09-19T06:22:51;98823.84;;;16.11;100.00
52927;BME280;40783;49.710;8.842;2023-09-19T06:25:19;98825.53;;;16.12;100.00
52927;BME280;40783;49.710;8.842;2023-09-19T06:27:48;98818.47;;;16.11;100.00
52927;BME280;40783;49.710;8.842;2023-09-19T06:30:13;98828.44;;;16.17;100.00
52927;BME280;40783;49.710;8.842;2023-09-19T06:32:39;98822.59;;;16.07;100.00
52927;BME280;40783;49.710;8.842;2023-09-19T06:35:05;98828.44;;;16.17;100.00
52927;BME280;40783;49.710;8.842;2023-09-19T06:37:36;98824.72;;;16.19;100.00
52927;BME280;40783;49.710;8.842;2023-09-19T06:40:03;98828.44;;;16.24;100.00
52927;BME280;40783;49.710;8.842;2023-09-19T06:42:30;98823.06;;;16.24;100.00
52927;BME280;40783;49.710;8.842;2023-09-19T06:44:55;98836.13;;;16.21;100.00
52927;BME280;40783;49.710;8.842;2023-09-19T06:47:21;98839.69;;;16.28;100.00
52927;BME280;40783;49.710;8.842;2023-09-19T06:49:51;98850.88;;;16.25;100.00
52927;BME280;40783;49.710;8.842;2023-09-19T06:52:20;98855.47;;;16.31;100.00
52927;BME280;40783;49.710;8.842;2023-09-19T06:54:46;98852.97;;;16.29;100.00
52927;BME280;40783;49.710;8.842;2023-09-19T06:57:12;98863.75;;;16.29;100.00
52927;BME280;40783;49.710;8.842;2023-09-19T06:59:41;98866.03;;;16.32;100.00
52927;BME280;40783;49.710;8.842;2023-09-19T07:02:06;98868.75;;;16.32;100.00
52927;BME280;40783;49.710;8.842;2023-09-19T07:04:31;98872.28;;;16.33;100.00
52927;BME280;40783;49.710;8.842;2023-09-19T07:06:57;98871.22;;;16.27;100.00
52927;BME280;40783;49.710;8.842;2023-09-19T07:09:23;98870.00;;;16.30;100.00
52927;BME280;40783;49.710;8.842;2023-09-19T07:11:51;98868.97;;;16.31;100.00
52927;BME280;40783;49.710;8.842;2023-09-19T07:14:18;98883.28;;;16.31;100.00
52927;BME280;40783;49.710;8.842;2023-09-19T07:16:43;98887.63;;;16.26;100.00
52927;BME280;40783;49.710;8.842;2023-09-19T07:19:10;98878.44;;;16.20;100.00
52927;BME280;40783;49.710;8.842;2023-09-19T07:21:42;98885.97;;;16.25;100.00
52927;BME280;40783;49.710;8.842;2023-09-19T07:24:12;98894.50;;;16.35;100.00
52927;BME280;40783;49.710;8.842;2023-09-19T07:26:38;98892.41;;;16.30;100.00
52927;BME280;40783;49.710;8.842;2023-09-19T07:29:04;98898.25;;;16.34;100.00
52927;BME280;40783;49.710;8.842;2023-09-19T07:31:31;98898.47;;;16.39;100.00
52927;BME280;40783;49.710;8.842;2023-09-19T07:34:01;98902.59;;;16.35;100.00
52927;BME280;40783;49.710;8.842;2023-09-19T07:36:29;98900.72;;;16.29;100.00
52927;BME280;40783;49.710;8.842;2023-09-19T07:39:01;98906.13;;;16.36;100.00
52927;BME280;40783;49.710;8.842;2023-09-19T07:41:26;98907.38;;;16.40;100.00
52927;BME280;40783;49.710;8.842;2023-09-19T07:43:52;98916.06;;;16.28;100.00
52927;BME280;40783;49.710;8.842;2023-09-19T07:46:17;98910.94;;;16.40;100.00
52927;BME280;40783;49.710;8.842;2023-09-19T07:48:42;98917.16;;;16.47;100.00
52927;BME280;40783;49.710;8.842;2023-09-19T07:51:13;98915.88;;;16.30;100.00
52927;BME280;40783;49.710;8.842;2023-09-19T07:53:39;98914.44;;;16.41;100.00
52927;BME280;40783;49.710;8.842;2023-09-19T07:56:05;98926.69;;;16.43;100.00
52927;BME280;40783;49.710;8.842;2023-09-19T07:58:30;98921.53;;;16.49;100.00
52927;BME280;40783;49.710;8.842;2023-09-19T08:00:56;98915.09;;;16.50;100.00
52927;BME280;40783;49.710;8.842;2023-09-19T08:03:21;98920.31;;;16.51;100.00
52927;BME280;40783;49.710;8.842;2023-09-19T08:05:47;98915.72;;;16.52;100.00
52927;BME280;40783;49.710;8.842;2023-09-19T08:08:14;98919.44;;;16.51;100.00
52927;BME280;40783;49.710;8.842;2023-09-19T08:10:40;98924.44;;;16.54;100.00
52927;BME280;40783;49.710;8.842;2023-09-19T08:13:09;98929.88;;;16.60;100.00
52927;BME280;40783;49.710;8.842;2023-09-19T08:15:43;98933.22;;;16.69;100.00
52927;BME280;40783;49.710;8.842;2023-09-19T08:18:09;98930.75;;;16.74;100.00
52927;BME280;40783;49.710;8.842;2023-09-19T08:20:37;98935.34;;;16.81;100.00
52927;BME280;40783;49.710;8.842;2023-09-19T08:23:05;98928.28;;;16.80;100.00
52927;BME280;40783;49.710;8.842;2023-09-19T08:25:30;98934.94;;;16.84;100.00
52927;BME280;40783;49.710;8.842;2023-09-19T08:27:56;98941.59;;;16.88;100.00
52927;BME280;40783;49.710;8.842;2023-09-19T08:30:26;98941.59;;;16.95;100.00
52927;BME280;40783;49.710;8.842;2023-09-19T08:33:01;98943.03;;;16.90;100.00
52927;BME280;40783;49.710;8.842;2023-09-19T08:35:29;98940.34;;;16.90;100.00
52927;BME280;40783;49.710;8.842;2023-09-19T08:37:55;98947.88;;;17.02;100.00
52927;BME280;40783;49.710;8.842;2023-09-19T08:40:20;98943.50;;;17.01;100.00
52927;BME280;40783;49.710;8.842;2023-09-19T08:42:52;98944.31;;;17.01;100.00
52927;BME280;40783;49.710;8.842;2023-09-19T08:45:19;98957.78;;;16.88;98.14
52927;BME280;40783;49.710;8.842;2023-09-19T08:48:30;98955.31;;;16.93;100.00
52927;BME280;40783;49.710;8.842;2023-09-19T08:50:30;98959.03;;;16.92;100.00
52927;BME280;40783;49.710;8.842;2023-09-19T08:52:57;98955.31;;;16.93;96.17
52927;BME280;40783;49.710;8.842;2023-09-19T08:55:28;98968.63;;;17.01;100.00
52927;BME280;40783;49.710;8.842;2023-09-19T08:58:00;98957.41;;;17.04;98.67
52927;BME280;40783;49.710;8.842;2023-09-19T09:00:28;98962.81;;;17.04;94.96
52927;BME280;40783;49.710;8.842;2023-09-19T09:02:56;98955.34;;;17.00;97.38
52927;BME280;40783;49.710;8.842;2023-09-19T09:05:24;98954.94;;;17.10;97.73
52927;BME280;40783;49.710;8.842;2023-09-19T09:07:51;98957.84;;;17.15;97.47
52927;BME280;40783;49.710;8.842;2023-09-19T09:10:21;98962.03;;;17.24;98.85
52927;BME280;40783;49.710;8.842;2023-09-19T09:12:52;98948.31;;;17.32;96.93
52927;BME280;40783;49.710;8.842;2023-09-19T09:15:20;98970.34;;;17.29;97.59
52927;BME280;40783;49.710;8.842;2023-09-19T09:17:51;98961.19;;;17.30;91.51
52927;BME280;40783;49.710;8.842;2023-09-19T09:20:20;98958.06;;;17.27;91.64
52927;BME280;40783;49.710;8.842;2023-09-19T09:22:52;98956.63;;;17.24;88.55
52927;BME280;40783;49.710;8.842;2023-09-19T09:25:23;98957.88;;;17.28;93.24
52927;BME280;40783;49.710;8.842;2023-09-19T09:28:08;98959.53;;;17.29;89.64
52927;BME280;40783;49.710;8.842;2023-09-19T09:30:34;98957.25;;;17.40;88.22
52927;BME280;40783;49.710;8.842;2023-09-19T09:33:10;98962.03;;;17.24;85.64
52927;BME280;40783;49.710;8.842;2023-09-19T09:35:38;98974.91;;;17.22;87.01
52927;BME280;40783;49.710;8.842;2023-09-19T09:38:12;98962.88;;;17.31;85.45
52927;BME280;40783;49.710;8.842;2023-09-19T09:40:48;98976.59;;;17.37;89.71
52927;BME280;40783;49.710;8.842;2023-09-19T09:43:25;98964.72;;;17.31;83.83
52927;BME280;40783;49.710;8.842;2023-09-19T09:46:05;98967.84;;;17.34;84.33
52927;BME280;40783;49.710;8.842;2023-09-19T09:51:38;98966.63;;;17.44;86.42
52927;BME280;40783;49.710;8.842;2023-09-19T09:54:13;98959.13;;;17.32;79.93
52927;BME280;40783;49.710;8.842;2023-09-19T09:56:58;98957.88;;;17.42;86.00
52927;BME280;40783;49.710;8.842;2023-09-19T10:02:08;98951.03;;;17.46;80.64
52927;BME280;40783;49.710;8.842;2023-09-19T10:04:38;98948.94;;;17.48;80.88
52927;BME280;40783;49.710;8.842;2023-09-19T10:07:26;98947.47;;;17.52;82.50
52927;BME280;40783;49.710;8.842;2023-09-19T10:09:53;98946.00;;;17.56;80.38
52927;BME280;40783;49.710;8.842;2023-09-19T10:12:28;98954.13;;;17.63;84.01
52927;BME280;40783;49.710;8.842;2023-09-19T10:14:53;98951.22;;;17.64;85.56
52927;BME280;40783;49.710;8.842;2023-09-19T10:17:22;98948.72;;;17.70;85.41
52927;BME280;40783;49.710;8.842;2023-09-19T10:19:56;98951.63;;;17.75;87.23
52927;BME280;40783;49.710;8.842;2023-09-19T10:22:27;98936.22;;;17.75;76.91
52927;BME280;40783;49.710;8.842;2023-09-19T10:25:08;98939.97;;;17.54;75.17
52927;BME280;40783;49.710;8.842;2023-09-19T10:27:56;98941.63;;;17.55;75.52
52927;BME280;40783;49.710;8.842;2023-09-19T10:30:27;98942.06;;;17.52;79.13
52927;BME280;40783;49.710;8.842;2023-09-19T10:32:58;98944.13;;;17.50;77.09
52927;BME280;40783;49.710;8.842;2023-09-19T10:35:26;98948.50;;;17.64;80.10
52927;BME280;40783;49.710;8.842;2023-09-19T10:37:52;98934.59;;;17.61;77.56
52927;BME280;40783;49.710;8.842;2023-09-19T10:40:19;98948.72;;;17.70;76.36
52927;BME280;40783;49.710;8.842;2023-09-19T10:42:46;98948.91;;;17.61;76.55
52927;BME280;40783;49.710;8.842;2023-09-19T10:45:15;98951.63;;;17.61;78.21
52927;BME280;40783;49.710;8.842;2023-09-19T10:47:45;98955.56;;;17.65;80.41
52927;BME280;40783;49.710;8.842;2023-09-19T10:50:19;98961.41;;;17.76;80.96
52927;BME280;40783;49.710;8.842;2023-09-19T10:52:46;98959.50;;;17.83;nan
52927;BME280;40783;49.710;8.842;2023-09-19T10:55:17;98954.09;;;17.83;81.99
52927;BME280;40783;49.710;8.842;2023-09-19T10:57:44;98953.25;;;17.89;79.28
52927;BME280;40783;49.710;8.842;2023-09-19T11:00:09;98960.13;;;17.92;81.80
52927;BME280;40783;49.710;8.842;2023-09-19T11:05:42;98955.53;;;18.06;82.37
52927;BME280;40783;49.710;8.842;2023-09-19T11:08:07;98956.56;;;18.05;80.43
52927;BME280;40783;49.710;8.842;2023-09-19T11:24:27;98940.56;;;18.56;78.88
52927;BME280;40783;49.710;8.842;2023-09-19T11:26:57;98950.09;;;18.65;81.30
52927;BME280;40783;49.710;8.842;2023-09-19T11:29:34;98945.91;;;18.69;78.15
52927;BME280;40783;49.710;8.842;2023-09-19T11:32:02;98934.47;;;18.67;78.29
52927;BME280;40783;49.710;8.842;2023-09-19T11:39:29;98917.97;;;18.75;79.30
52927;BME280;40783;49.710;8.842;2023-09-19T11:41:54;98937.53;;;18.77;79.05
52927;BME280;40783;49.710;8.842;2023-09-19T11:46:58;98927.06;;;18.88;78.85
52927;BME280;40783;49.710;8.842;2023-09-19T11:49:31;98931.25;;;18.83;79.10
52927;BME280;40783;49.710;8.842;2023-09-19T11:51:58;98929.16;;;18.86;79.02
52927;BME280;40783;49.710;8.842;2023-09-19T11:54:26;98918.50;;;18.91;78.40
52927;BME280;40783;49.710;8.842;2023-09-19T11:56:54;98927.00;;;18.94;79.19
52927;BME280;40783;49.710;8.842;2023-09-19T11:59:29;98919.13;;;18.93;77.18
52927;BME280;40783;49.710;8.842;2023-09-19T12:01:58;98919.13;;;18.93;75.57
52927;BME280;40783;49.710;8.842;2023-09-19T12:06:57;98909.94;;;18.94;78.33
52927;BME280;40783;49.710;8.842;2023-09-19T12:09:25;98895.78;;;18.92;73.09
52927;BME280;40783;49.710;8.842;2023-09-19T12:11:50;98917.84;;;19.02;78.95
52927;BME280;40783;49.710;8.842;2023-09-19T12:14:23;98904.53;;;18.94;77.31
52927;BME280;40783;49.710;8.842;2023-09-19T12:16:56;98911.06;;;18.79;74.15
52927;BME280;40783;49.710;8.842;2023-09-19T12:19:22;98897.97;;;18.76;74.06
52927;BME280;40783;49.710;8.842;2023-09-19T12:21:55;98901.78;;;18.68;75.10
52927;BME280;40783;49.710;8.842;2023-09-19T12:24:21;98906.44;;;18.54;78.33
52927;BME280;40783;49.710;8.842;2023-09-19T12:26:49;98904.31;;;18.57;74.33
52927;BME280;40783;49.710;8.842;2023-09-19T12:29:21;98909.72;;;18.57;77.98
52927;BME280;40783;49.710;8.842;2023-09-19T12:31:50;98901.84;;;18.55;78.68
52927;BME280;40783;49.710;8.842;2023-09-19T12:34:26;98899.75;;;18.57;79.30
52927;BME280;40783;49.710;8.842;2023-09-19T12:37:04;98897.25;;;18.56;76.89
52927;BME280;40783;49.710;8.842;2023-09-19T12:39:37;98898.47;;;18.60;76.89
52927;BME280;40783;49.710;8.842;2023-09-19T12:42:02;98888.44;;;18.67;75.39
52927;BME280;40783;49.710;8.842;2023-09-19T12:44:29;98885.53;;;18.68;73.89
52927;BME280;40783;49.710;8.842;2023-09-19T12:46:57;98891.72;;;18.76;73.94
52927;BME280;40783;49.710;8.842;2023-09-19T12:49:24;98888.78;;;18.77;74.15
52927;BME280;40783;49.710;8.842;2023-09-19T12:51:49;98876.66;;;18.87;73.55
52927;BME280;40783;49.710;8.842;2023-09-19T12:54:19;98883.06;;;18.92;74.97
52927;BME280;40783;49.710;8.842;2023-09-19T12:56:47;98885.75;;;18.92;72.16
52927;BME280;40783;49.710;8.842;2023-09-19T12:59:14;98880.13;;;18.94;73.49
52927;BME280;40783;49.710;8.842;2023-09-19T13:01:40;98884.50;;;18.95;73.96
52927;BME280;40783;49.710;8.842;2023-09-19T13:06:49;98880.41;;;18.86;73.74
52927;BME280;40783;49.710;8.842;2023-09-19T13:09:17;98884.94;;;18.92;75.06
52927;BME280;40783;49.710;8.842;2023-09-19T13:11:43;98880.41;;;18.86;73.57
52927;BME280;40783;49.710;8.842;2023-09-19T13:14:19;98870.00;;;18.82;70.90
52927;BME280;40783;49.710;8.842;2023-09-19T13:19:38;98870.06;;;18.76;72.83
52927;BME280;40783;49.710;8.842;2023-09-19T13:22:04;98865.47;;;18.76;73.00
52927;BME280;40783;49.710;8.842;2023-09-19T13:24:31;98866.06;;;18.78;74.09
52927;BME280;40783;49.710;8.842;2023-09-19T13:26:59;98865.03;;;18.79;72.82
52927;BME280;40783;49.710;8.842;2023-09-19T13:29:25;98854.56;;;18.83;71.50
52927;BME280;40783;49.710;8.842;2023-09-19T13:31:51;98859.09;;;18.89;70.06
52927;BME280;40783;49.710;8.842;2023-09-19T13:34:18;98854.53;;;18.90;71.92
52927;BME280;40783;49.710;8.842;2023-09-19T13:36:43;98854.91;;;19.00;70.47
52927;BME280;40783;49.710;8.842;2023-09-19T13:39:09;98852.38;;;19.05;70.27
52927;BME280;40783;49.710;8.842;2023-09-19T13:41:36;98849.66;;;19.05;68.52
52927;BME280;40783;49.710;8.842;2023-09-19T13:44:02;98855.50;;;19.02;69.82
52927;BME280;40783;49.710;8.842;2023-09-19T13:46:27;98852.38;;;19.05;70.89
52927;BME280;40783;49.710;8.842;2023-09-19T13:48:55;98845.28;;;19.04;70.56
52927;BME280;40783;49.710;8.842;2023-09-19T13:51:21;98852.66;;;19.16;69.85
52927;BME280;40783;49.710;8.842;2023-09-19T13:53:48;98857.00;;;19.23;71.55
52927;BME280;40783;49.710;8.842;2023-09-19T13:56:13;98853.78;;;19.33;71.06
52927;BME280;40783;49.710;8.842;2023-09-19T13:58:38;98847.47;;;19.39;69.38
52927;BME280;40783;49.710;8.842;2023-09-19T14:01:04;98841.00;;;19.40;68.37
52927;BME280;40783;49.710;8.842;2023-09-19T14:03:29;98847.91;;;19.36;68.82
52927;BME280;40783;49.710;8.842;2023-09-19T14:05:54;98847.13;;;19.29;67.02